createdAt,value
2019-03-13T00:01:15.137Z,70.64
2019-03-13T00:03:43.749Z,70.46
2019-03-13T00:06:13.568Z,70.55
2019-03-13T00:08:42.005Z,70.35
2019-03-13T00:11:10.509Z,70.35
2019-03-13T00:13:40.125Z,70.26
2019-03-13T00:16:08.561Z,70.19
2019-03-13T00:18:37.200Z,69.91
2019-03-13T00:21:05.720Z,69.98
2019-03-13T00:23:34.160Z,69.83
2019-03-13T00:26:02.683Z,69.81
2019-03-13T00:28:31.217Z,69.28
2019-03-13T00:30:59.671Z,69.28
2019-03-13T00:33:28.833Z,69.35
2019-03-13T00:35:57.256Z,69.28
2019-03-13T00:38:25.767Z,69.30
2019-03-13T00:40:54.445Z,69.30
2019-03-13T00:43:23.093Z,69.48
2019-03-13T00:45:51.684Z,69.23
2019-03-13T00:48:20.372Z,69.23
2019-03-13T00:50:48.841Z,69.44
2019-03-13T00:53:17.345Z,69.54
2019-03-13T00:55:46.018Z,70.46
2019-03-13T00:58:14.483Z,70.46
2019-03-13T01:00:44.553Z,70.05
2019-03-13T01:03:33.794Z,70.23
2019-03-13T01:06:03.867Z,70.58
2019-03-13T01:08:32.430Z,70.82
2019-03-13T01:11:00.950Z,70.82
2019-03-13T01:13:29.504Z,70.97
2019-03-13T01:15:58.109Z,71.16
2019-03-13T01:18:26.611Z,71.62
2019-03-13T01:20:55.114Z,71.82
2019-03-13T01:23:23.591Z,71.99
2019-03-13T01:25:52.297Z,72.34
2019-03-13T01:28:20.729Z,72.57
2019-03-13T01:30:50.812Z,72.57
2019-03-13T01:33:20.998Z,72.95
2019-03-13T01:35:51.084Z,73.06
2019-03-13T01:38:19.529Z,73.36
2019-03-13T01:40:48.210Z,73.21
2019-03-13T01:43:16.646Z,73.29
2019-03-13T01:45:45.592Z,73.43
2019-03-13T01:48:14.205Z,73.52
2019-03-13T01:50:42.644Z,73.73
2019-03-13T01:53:11.116Z,73.71
2019-03-13T01:55:39.754Z,73.75
2019-03-13T01:58:10.149Z,73.69
2019-03-13T02:00:38.651Z,73.57
2019-03-13T02:03:07.255Z,73.55
2019-03-13T02:05:35.780Z,73.57
2019-03-13T02:08:04.288Z,73.43
2019-03-13T02:10:32.926Z,73.19
2019-03-13T02:13:01.393Z,72.92
2019-03-13T02:15:29.896Z,72.70
2019-03-13T02:17:58.398Z,72.46
2019-03-13T02:20:26.837Z,72.41
2019-03-13T02:22:55.427Z,72.18
2019-03-13T02:25:24.049Z,72.03
2019-03-13T02:27:52.552Z,72.12
2019-03-13T02:30:23.104Z,71.75
2019-03-13T02:32:51.862Z,71.66
2019-03-13T02:35:21.354Z,71.40
2019-03-13T02:37:49.794Z,71.39
2019-03-13T02:40:18.336Z,71.17
2019-03-13T02:42:46.934Z,71.37
2019-03-13T02:45:16.007Z,71.25
2019-03-13T02:47:45.384Z,71.19
2019-03-13T02:50:16.138Z,71.01
2019-03-13T02:52:44.625Z,70.58
2019-03-13T02:55:13.920Z,70.58
2019-03-13T02:57:42.421Z,70.37
2019-03-13T03:00:14.920Z,70.23
2019-03-13T03:02:45.146Z,69.97
2019-03-13T03:05:13.947Z,69.79
2019-03-13T03:07:42.423Z,69.51
2019-03-13T03:10:12.948Z,69.25
2019-03-13T03:12:41.622Z,69.45
2019-03-13T03:15:13.145Z,69.46
2019-03-13T03:17:41.673Z,69.43
2019-03-13T03:20:18.598Z,69.43
2019-03-13T03:22:47.107Z,69.89
2019-03-13T03:25:17.037Z,70.12
2019-03-13T03:27:45.626Z,70.33
2019-03-13T03:30:20.026Z,70.68
2019-03-13T03:32:48.574Z,70.68
2019-03-13T03:35:17.302Z,70.94
2019-03-13T03:37:45.956Z,71.02
2019-03-13T03:40:22.493Z,71.34
2019-03-13T03:42:49.364Z,70.86
2019-03-13T03:45:18.094Z,70.84
2019-03-13T03:47:46.702Z,70.75
2019-03-13T03:50:17.409Z,70.70
2019-03-13T03:52:46.109Z,70.82
2019-03-13T03:55:16.388Z,70.41
2019-03-13T03:57:45.036Z,69.89
2019-03-13T04:00:17.796Z,69.89
2019-03-13T04:02:46.346Z,69.47
2019-03-13T04:05:15.314Z,69.38
2019-03-13T04:07:43.824Z,68.97
2019-03-13T04:10:16.007Z,68.35
2019-03-13T04:12:44.826Z,67.98
2019-03-13T04:15:15.267Z,67.98
2019-03-13T04:17:44.044Z,67.54
2019-03-13T04:20:17.022Z,67.19
2019-03-13T04:22:45.444Z,67.11
2019-03-13T04:25:23.059Z,67.17
2019-03-13T04:27:51.792Z,66.99
2019-03-13T04:30:21.141Z,67.06
2019-03-13T04:32:49.742Z,66.90
2019-03-13T04:35:18.182Z,66.62
2019-03-13T04:37:46.611Z,66.49
2019-03-13T04:40:15.292Z,66.27
2019-03-13T04:42:43.872Z,65.83
2019-03-13T04:45:12.929Z,65.74
2019-03-13T04:47:41.531Z,65.54
2019-03-13T04:50:11.815Z,65.62
2019-03-13T04:52:40.260Z,65.47
2019-03-13T04:55:10.551Z,65.52
2019-03-13T04:57:39.065Z,65.71
2019-03-13T05:00:17.795Z,65.70
2019-03-13T05:02:46.375Z,65.46
2019-03-13T05:05:37.689Z,65.06
2019-03-13T05:08:06.330Z,64.87
2019-03-13T05:10:34.802Z,64.93
2019-03-13T05:13:03.491Z,65.03
2019-03-13T05:15:32.083Z,65.02
2019-03-13T05:18:00.594Z,64.93
2019-03-13T05:20:29.138Z,64.58
2019-03-13T05:22:57.592Z,64.31
2019-03-13T05:25:26.052Z,64.04
2019-03-13T05:27:54.553Z,64.05
2019-03-13T05:30:23.141Z,63.96
2019-03-13T05:32:51.588Z,63.99
2019-03-13T05:35:20.222Z,63.85
2019-03-13T05:37:48.689Z,63.60
2019-03-13T05:40:17.209Z,63.58
2019-03-13T05:42:45.903Z,63.59
2019-03-13T05:45:14.427Z,63.61
2019-03-13T05:47:44.828Z,63.58
2019-03-13T05:50:13.592Z,63.65
2019-03-13T05:52:42.049Z,63.28
2019-03-13T05:55:10.680Z,63.33
2019-03-13T05:57:39.357Z,63.02
2019-03-13T06:00:10.150Z,62.89
2019-03-13T06:02:38.663Z,63.12
2019-03-13T06:05:08.660Z,63.14
2019-03-13T06:07:37.189Z,62.96
2019-03-13T06:10:09.032Z,62.67
2019-03-13T06:12:38.118Z,62.32
2019-03-13T06:15:09.689Z,61.85
2019-03-13T06:17:38.143Z,61.85
2019-03-13T06:20:10.725Z,62.61
2019-03-13T06:22:39.358Z,64.86
2019-03-13T06:25:10.177Z,65.30
2019-03-13T06:27:39.615Z,66.17
2019-03-13T06:30:19.064Z,67.19
2019-03-13T06:32:47.764Z,69.23
2019-03-13T06:35:17.297Z,70.86
2019-03-13T06:37:45.814Z,71.21
2019-03-13T06:40:20.366Z,71.65
2019-03-13T06:42:48.911Z,71.71
2019-03-13T06:45:17.667Z,72.58
2019-03-13T06:47:46.354Z,73.23
2019-03-13T06:50:23.956Z,72.89
2019-03-13T06:52:52.489Z,74.18
2019-03-13T06:55:21.061Z,76.25
2019-03-13T06:57:50.270Z,78.82
2019-03-13T07:00:30.970Z,80.79
2019-03-13T07:03:17.187Z,82.22
2019-03-13T07:06:03.594Z,83.49
2019-03-13T07:08:33.701Z,84.23
2019-03-13T07:11:06.482Z,84.05
2019-03-13T07:13:42.366Z,84.46
2019-03-13T07:16:15.470Z,84.53
2019-03-13T07:19:02.065Z,84.49
2019-03-13T07:21:38.167Z,84.73
2019-03-13T07:24:26.315Z,85.19
2019-03-13T07:26:56.408Z,85.18
2019-03-13T07:29:32.460Z,85.03
2019-03-13T07:32:08.375Z,85.78
2019-03-13T07:34:55.030Z,86.52
2019-03-13T07:37:25.112Z,87.02
2019-03-13T07:40:10.085Z,87.70
2019-03-13T07:42:45.870Z,88.11
2019-03-13T07:45:34.573Z,88.15
2019-03-13T07:48:13.589Z,88.08
2019-03-13T07:50:55.813Z,86.93
2019-03-13T07:53:25.916Z,86.57
2019-03-13T07:56:11.665Z,86.28
2019-03-13T07:59:00.051Z,85.90
2019-03-13T08:01:41.981Z,85.72
2019-03-13T08:04:30.099Z,85.58
2019-03-13T08:07:06.156Z,85.60
2019-03-13T08:09:36.257Z,84.53
2019-03-13T08:12:15.818Z,83.96
2019-03-13T08:15:01.922Z,82.97
2019-03-13T08:17:38.178Z,81.79
2019-03-13T08:20:17.089Z,81.08
2019-03-13T08:22:59.292Z,80.89
2019-03-13T08:25:34.970Z,80.08
2019-03-13T08:28:05.141Z,79.93
2019-03-13T08:30:35.227Z,78.51
2019-03-13T08:33:08.091Z,76.84
2019-03-13T08:35:50.674Z,77.37
2019-03-13T08:38:23.587Z,77.09
2019-03-13T08:41:13.723Z,75.66
2019-03-13T08:43:59.862Z,74.68
2019-03-13T08:46:30.169Z,74.84
2019-03-13T08:49:00.264Z,73.93
2019-03-13T08:51:30.386Z,73.35
2019-03-13T08:54:09.710Z,72.84
2019-03-13T08:56:45.725Z,73.89
2019-03-13T08:59:19.100Z,74.11
2019-03-13T09:01:53.789Z,73.45
2019-03-13T09:04:41.983Z,71.25
2019-03-13T09:07:28.668Z,69.60
2019-03-13T09:10:04.741Z,68.01
2019-03-13T09:12:40.900Z,68.55
2019-03-13T09:15:14.687Z,68.45
2019-03-13T09:17:50.790Z,67.06
2019-03-13T09:20:24.022Z,67.70
2019-03-13T09:23:00.057Z,67.29
2019-03-13T09:25:30.314Z,66.78
2019-03-13T09:28:18.451Z,66.65
2019-03-13T09:31:06.577Z,68.12
2019-03-13T09:33:42.789Z,67.99
2019-03-13T09:36:15.851Z,67.30
2019-03-13T09:38:58.194Z,67.76
2019-03-13T09:41:28.431Z,68.82
2019-03-13T09:44:10.695Z,68.52
2019-03-13T09:46:43.614Z,67.60
2019-03-13T09:49:25.531Z,65.00
2019-03-13T09:52:04.374Z,66.67
2019-03-13T09:54:49.740Z,65.30
2019-03-13T09:57:36.552Z,62.43
2019-03-13T10:00:27.267Z,64.85
2019-03-13T10:03:03.390Z,66.58
2019-03-13T10:05:45.827Z,66.51
2019-03-13T10:08:16.068Z,65.63
2019-03-13T10:10:46.185Z,64.44
2019-03-13T10:13:31.219Z,64.46
2019-03-13T10:16:03.960Z,63.74
2019-03-13T10:18:34.142Z,64.09
2019-03-13T10:21:07.117Z,63.93
2019-03-13T10:23:40.013Z,63.69
2019-03-13T10:26:28.544Z,61.66
2019-03-13T10:28:58.714Z,61.13
2019-03-13T10:31:37.942Z,60.97
2019-03-13T10:34:15.013Z,61.29
2019-03-13T10:36:50.385Z,58.67
2019-03-13T10:39:28.428Z,57.79
2019-03-13T10:42:01.268Z,56.65
2019-03-13T10:44:31.432Z,58.32
2019-03-13T10:47:17.833Z,57.37
2019-03-13T10:49:47.996Z,58.61
2019-03-13T10:52:33.423Z,59.14
2019-03-13T10:55:03.601Z,56.67
2019-03-13T10:57:36.379Z,55.78
2019-03-13T11:00:18.431Z,56.62
2019-03-13T11:02:54.023Z,56.47
2019-03-13T11:05:27.704Z,56.27
2019-03-13T11:08:00.728Z,57.86
2019-03-13T11:10:49.308Z,56.45
2019-03-13T11:13:25.744Z,56.21
2019-03-13T11:15:58.442Z,56.94
2019-03-13T11:18:37.390Z,56.01
2019-03-13T11:21:19.691Z,54.40
2019-03-13T11:23:52.433Z,54.31
2019-03-13T11:26:22.519Z,54.24
2019-03-13T11:31:51.107Z,54.54
2019-03-13T11:34:24.216Z,54.21
2019-03-13T11:37:12.512Z,52.11
2019-03-13T11:40:02.579Z,53.84
2019-03-13T11:42:32.742Z,53.07
2019-03-13T11:45:14.577Z,54.78
2019-03-13T11:47:47.479Z,53.27
2019-03-13T11:50:20.377Z,51.86
2019-03-13T11:52:53.174Z,49.51
2019-03-13T11:55:25.834Z,48.42
2019-03-13T11:58:12.439Z,47.65
2019-03-13T12:01:01.392Z,48.77
2019-03-13T12:03:37.346Z,48.38
2019-03-13T12:06:08.171Z,51.04
2019-03-13T12:08:54.717Z,50.72
2019-03-13T12:11:24.983Z,49.22
2019-03-13T12:14:10.300Z,45.79
2019-03-13T12:16:49.612Z,43.50
2019-03-13T12:19:36.323Z,41.70
2019-03-13T12:22:09.420Z,41.63
2019-03-13T12:24:51.826Z,39.78
2019-03-13T12:27:39.994Z,39.69
2019-03-13T12:30:24.289Z,39.93
2019-03-13T12:33:11.632Z,41.60
2019-03-13T12:35:47.807Z,41.79
2019-03-13T12:38:20.968Z,39.06
2019-03-13T12:40:51.068Z,39.40
2019-03-13T12:43:27.118Z,38.40
2019-03-13T12:46:05.856Z,40.17
2019-03-13T12:48:36.035Z,40.53
2019-03-13T12:51:21.211Z,41.47
2019-03-13T12:53:53.999Z,40.67
2019-03-13T12:56:30.285Z,38.79
2019-03-13T12:59:06.352Z,37.94
2019-03-13T13:01:45.426Z,35.43
2019-03-13T13:04:31.784Z,33.30
2019-03-13T13:07:07.814Z,34.57
2019-03-13T13:09:54.420Z,37.53
2019-03-13T13:12:24.519Z,37.44
2019-03-13T13:14:57.223Z,36.63
2019-03-13T13:17:42.416Z,37.42
2019-03-13T13:20:14.816Z,37.34
2019-03-13T13:22:43.278Z,39.25
2019-03-13T13:25:12.053Z,40.20
2019-03-13T13:27:40.521Z,39.13
2019-03-13T13:30:16.757Z,37.72
2019-03-13T13:32:45.400Z,34.28
2019-03-13T13:35:13.993Z,34.64
2019-03-13T13:37:42.440Z,36.17
2019-03-13T13:40:16.090Z,36.08
2019-03-13T13:42:44.568Z,33.28
2019-03-13T13:45:34.761Z,32.87
2019-03-13T13:48:03.303Z,31.93
2019-03-13T13:50:31.767Z,34.62
2019-03-13T13:53:00.526Z,36.32
2019-03-13T13:55:29.024Z,37.62
2019-03-13T13:57:57.548Z,39.58
2019-03-13T14:00:26.171Z,40.92
2019-03-13T14:02:54.627Z,41.23
2019-03-13T14:05:23.170Z,41.95
2019-03-13T14:07:52.627Z,42.35
2019-03-13T14:10:21.176Z,41.46
2019-03-13T14:12:49.651Z,42.78
2019-03-13T14:15:18.389Z,42.68
2019-03-13T14:17:46.918Z,43.12
2019-03-13T14:20:15.924Z,44.29
2019-03-13T14:22:44.501Z,44.15
2019-03-13T14:25:14.671Z,44.75
2019-03-13T14:27:43.192Z,44.87
2019-03-13T14:30:19.870Z,44.99
2019-03-13T14:32:48.425Z,45.06
2019-03-13T14:35:16.954Z,46.30
2019-03-13T14:37:45.624Z,46.20
2019-03-13T14:40:18.911Z,46.24
2019-03-13T14:42:47.587Z,47.53
2019-03-13T14:45:18.321Z,47.87
2019-03-13T14:47:46.777Z,48.42
2019-03-13T14:50:17.456Z,47.65
2019-03-13T14:52:45.987Z,47.45
2019-03-13T14:55:16.030Z,48.24
2019-03-13T14:57:44.748Z,47.66
2019-03-13T15:00:16.437Z,47.28
2019-03-13T15:02:45.065Z,47.80
2019-03-13T15:05:13.967Z,48.21
2019-03-13T15:07:42.794Z,45.00
2019-03-13T15:10:16.934Z,45.63
2019-03-13T15:12:45.470Z,45.39
2019-03-13T15:15:15.830Z,45.71
2019-03-13T15:17:44.372Z,45.63
2019-03-13T15:20:15.184Z,47.12
2019-03-13T15:22:43.716Z,47.12
2019-03-13T15:25:13.817Z,46.64
2019-03-13T15:27:42.417Z,46.85
2019-03-13T15:30:25.518Z,47.62
2019-03-13T15:32:54.059Z,48.40
2019-03-13T15:35:22.649Z,49.57
2019-03-13T15:37:51.240Z,47.90
2019-03-13T15:40:20.355Z,45.70
2019-03-13T15:42:49.387Z,46.92
2019-03-13T15:45:27.044Z,45.34
2019-03-13T15:47:55.638Z,46.48
2019-03-13T15:50:24.177Z,46.73
2019-03-13T15:52:52.899Z,47.63
2019-03-13T15:55:21.497Z,46.23
2019-03-13T15:57:50.062Z,46.06
2019-03-13T16:00:29.697Z,46.92
2019-03-13T16:02:58.286Z,46.38
2019-03-13T16:05:26.752Z,46.69
2019-03-13T16:07:55.395Z,44.97
2019-03-13T16:10:24.923Z,43.75
2019-03-13T16:12:55.612Z,43.93
2019-03-13T16:15:34.082Z,43.10
2019-03-13T16:18:02.566Z,44.37
2019-03-13T16:20:31.023Z,45.30
2019-03-13T16:23:00.908Z,46.65
2019-03-13T16:25:29.631Z,48.52
2019-03-13T16:27:58.282Z,48.90
2019-03-13T16:30:29.723Z,50.03
2019-03-13T16:32:58.175Z,50.27
2019-03-13T16:35:31.417Z,50.92
2019-03-13T16:38:00.359Z,50.99
2019-03-13T16:40:31.641Z,50.46
2019-03-13T16:42:59.380Z,50.82
2019-03-13T16:45:28.153Z,51.19
2019-03-13T16:47:56.673Z,51.67
2019-03-13T16:50:33.210Z,52.78
2019-03-13T16:53:01.982Z,53.77
2019-03-13T16:55:30.505Z,54.02
2019-03-13T16:57:59.028Z,53.88
2019-03-13T17:00:31.359Z,53.62
2019-03-13T17:02:59.952Z,54.13
2019-03-13T17:05:28.438Z,54.38
2019-03-13T17:07:56.979Z,54.29
2019-03-13T17:10:27.370Z,54.09
2019-03-13T17:12:55.973Z,53.76
2019-03-13T17:15:26.762Z,54.12
2019-03-13T17:17:55.554Z,54.21
2019-03-13T17:20:31.867Z,54.25
2019-03-13T17:23:00.423Z,54.42
2019-03-13T17:25:29.002Z,54.18
2019-03-13T17:27:57.521Z,54.48
2019-03-13T17:30:30.171Z,54.73
2019-03-13T17:32:59.428Z,54.85
2019-03-13T17:35:29.241Z,54.99
2019-03-13T17:37:57.829Z,54.91
2019-03-13T17:40:32.111Z,54.75
2019-03-13T17:43:00.666Z,54.98
2019-03-13T17:45:29.587Z,55.17
2019-03-13T17:47:59.093Z,55.46
2019-03-13T17:50:27.695Z,55.54
2019-03-13T17:52:56.257Z,55.89
2019-03-13T17:55:27.900Z,56.08
2019-03-13T17:57:56.476Z,56.44
2019-03-13T18:00:41.782Z,56.37
2019-03-13T18:03:10.234Z,56.43
2019-03-13T18:05:38.695Z,56.37
2019-03-13T18:08:07.337Z,56.25
2019-03-13T18:10:35.803Z,56.02
2019-03-13T18:13:04.309Z,56.08
2019-03-13T18:15:33.889Z,56.07
2019-03-13T18:18:02.577Z,56.01
2019-03-13T18:20:31.105Z,55.97
2019-03-13T18:22:59.877Z,55.89
2019-03-13T18:25:28.418Z,55.83
2019-03-13T18:27:56.898Z,55.49
2019-03-13T18:30:32.920Z,55.20
2019-03-13T18:33:01.391Z,54.98
2019-03-13T18:35:30.052Z,55.04
2019-03-13T18:37:58.719Z,54.84
2019-03-13T18:40:28.881Z,54.69
2019-03-13T18:42:57.473Z,54.51
2019-03-13T18:45:33.874Z,54.57
2019-03-13T18:48:02.405Z,54.25
2019-03-13T18:50:30.958Z,54.26
2019-03-13T18:52:59.725Z,54.36
2019-03-13T18:55:29.612Z,54.43
2019-03-13T18:57:58.225Z,54.73
2019-03-13T19:00:39.002Z,55.16
2019-03-13T19:03:08.403Z,55.49
2019-03-13T19:05:38.814Z,55.89
2019-03-13T19:08:07.694Z,56.46
2019-03-13T19:10:36.348Z,57.27
2019-03-13T19:13:05.312Z,58.26
2019-03-13T19:15:34.076Z,59.30
2019-03-13T19:18:02.620Z,60.43
2019-03-13T19:20:31.846Z,61.69
2019-03-13T19:23:01.371Z,62.96
2019-03-13T19:25:30.039Z,64.11
2019-03-13T19:27:58.968Z,65.15
2019-03-13T19:30:32.353Z,66.01
2019-03-13T19:33:01.345Z,66.69
2019-03-13T19:35:30.027Z,67.29
2019-03-13T19:38:09.863Z,67.90
2019-03-13T19:40:38.476Z,68.38
2019-03-13T19:43:07.088Z,68.94
2019-03-13T19:45:40.865Z,69.26
2019-03-13T19:48:09.594Z,69.45
2019-03-13T19:50:38.061Z,69.31
2019-03-13T19:53:07.633Z,69.19
2019-03-13T19:55:36.324Z,68.94
2019-03-13T19:58:05.062Z,68.53
2019-03-13T20:00:33.834Z,68.04
2019-03-13T20:03:13.583Z,67.62
2019-03-13T20:05:46.042Z,67.27
2019-03-13T20:08:14.147Z,66.61
2019-03-13T20:10:42.809Z,66.66
2019-03-13T20:13:11.585Z,66.35
2019-03-13T20:15:40.170Z,66.21
2019-03-13T20:18:08.651Z,66.10
2019-03-13T20:20:37.365Z,66.09
2019-03-13T20:23:08.419Z,66.03
2019-03-13T20:25:36.961Z,65.83
2019-03-13T20:28:06.807Z,65.65
2019-03-13T20:30:35.504Z,65.60
2019-03-13T20:33:04.107Z,65.53
2019-03-13T20:35:32.782Z,65.75
2019-03-13T20:38:01.381Z,65.32
2019-03-13T20:40:29.889Z,64.90
2019-03-13T20:43:01.757Z,64.52
2019-03-13T20:45:31.177Z,64.12
2019-03-13T20:47:59.719Z,63.98
2019-03-13T20:50:36.527Z,64.12
2019-03-13T20:52:58.509Z,64.21
2019-03-13T20:55:26.946Z,64.41
2019-03-13T20:57:55.646Z,64.76
2019-03-13T21:00:28.177Z,64.96
2019-03-13T21:02:57.394Z,65.13
2019-03-13T21:05:26.174Z,65.24
2019-03-13T21:07:55.817Z,65.41
2019-03-13T21:10:24.413Z,65.05
2019-03-13T21:12:53.134Z,65.19
2019-03-13T21:15:26.276Z,65.34
2019-03-13T21:17:55.045Z,65.55
2019-03-13T21:20:23.824Z,65.20
2019-03-13T21:22:52.454Z,64.70
2019-03-13T21:25:26.060Z,64.09
2019-03-13T21:27:54.791Z,63.88
2019-03-13T21:30:27.884Z,63.74
2019-03-13T21:32:56.675Z,63.52
2019-03-13T21:35:25.405Z,63.11
2019-03-13T21:37:54.382Z,63.24
2019-03-13T21:40:26.994Z,63.08
2019-03-13T21:42:55.866Z,63.16
2019-03-13T21:45:25.614Z,63.26
2019-03-13T21:47:54.188Z,63.16
2019-03-13T21:50:23.552Z,63.27
2019-03-13T21:52:52.293Z,62.95
2019-03-13T21:55:20.880Z,63.07
2019-03-13T21:57:52.295Z,63.10
2019-03-13T22:00:23.481Z,63.22
2019-03-13T22:02:54.541Z,63.13
2019-03-13T22:05:27.087Z,63.30
2019-03-13T22:07:54.384Z,63.43
2019-03-13T22:10:23.273Z,63.29
2019-03-13T22:12:52.080Z,63.24
2019-03-13T22:15:21.856Z,63.04
2019-03-13T22:17:50.765Z,63.17
2019-03-13T22:20:20.167Z,63.22
2019-03-13T22:22:48.621Z,63.08
2019-03-13T22:25:18.900Z,63.10
2019-03-13T22:27:47.465Z,62.90
2019-03-13T22:30:23.059Z,62.87
2019-03-13T22:32:52.618Z,63.01
2019-03-13T22:35:21.298Z,63.19
2019-03-13T22:37:50.039Z,63.21
2019-03-13T22:40:20.845Z,63.42
2019-03-13T22:42:51.018Z,63.49
2019-03-13T22:45:21.041Z,63.42
2019-03-13T22:47:49.731Z,63.48
2019-03-13T22:50:22.530Z,63.63
2019-03-13T22:52:51.169Z,63.69
2019-03-13T22:55:19.632Z,63.45
2019-03-13T22:57:48.219Z,63.52
2019-03-13T23:00:51.536Z,63.56
2019-03-13T23:03:21.910Z,63.69
2019-03-13T23:05:51.337Z,63.90
2019-03-13T23:08:20.047Z,63.81
2019-03-13T23:10:48.519Z,63.81
2019-03-13T23:13:17.558Z,63.85
2019-03-13T23:15:47.752Z,64.07
2019-03-13T23:18:18.333Z,64.04
2019-03-13T23:20:46.670Z,64.29
2019-03-13T23:23:15.225Z,64.30
2019-03-13T23:25:43.767Z,64.42
2019-03-13T23:28:12.356Z,64.61
2019-03-13T23:30:41.755Z,64.97
2019-03-13T23:33:10.419Z,65.24
2019-03-13T23:35:38.878Z,65.56
2019-03-13T23:38:07.507Z,65.81
2019-03-13T23:40:36.042Z,66.09
2019-03-13T23:43:04.654Z,66.49
2019-03-13T23:45:33.272Z,66.89
2019-03-13T23:48:02.993Z,67.38
2019-03-13T23:50:31.529Z,67.83
2019-03-13T23:53:00.161Z,68.22
2019-03-13T23:55:28.621Z,68.58
2019-03-13T23:57:57.105Z,68.90
